createdAt,value
2022-12-07T00:01:07.246Z,43.5
2022-12-07T00:02:23.391Z,43.5
2022-12-07T00:03:39.000Z,43.5
2022-12-07T00:04:55.000Z,43.5
2022-12-07T00:06:10.000Z,43
2022-12-07T00:07:26.000Z,42.9
2022-12-07T00:08:42.000Z,42.7
2022-12-07T00:09:59.000Z,42.6
2022-12-07T00:11:15.000Z,42.8
2022-12-07T00:12:31.000Z,42.5
2022-12-07T00:13:47.000Z,42.3
2022-12-07T00:15:03.000Z,42.3
2022-12-07T00:16:19.000Z,42.4
2022-12-07T00:17:35.000Z,42
2022-12-07T00:18:52.000Z,41.5
2022-12-07T00:20:08.000Z,41.4
2022-12-07T00:21:24.000Z,41.4
2022-12-07T00:22:39.000Z,41.5
2022-12-07T00:23:55.000Z,41.3
2022-12-07T00:25:11.000Z,41.3
2022-12-07T00:26:27.000Z,41.4
2022-12-07T00:27:44.000Z,41.5
2022-12-07T00:29:00.000Z,41
2022-12-07T00:30:16.000Z,41
2022-12-07T00:31:32.000Z,40.9
2022-12-07T00:32:48.000Z,40.9
2022-12-07T00:34:04.000Z,41
2022-12-07T00:35:20.000Z,41.2
2022-12-07T00:36:37.000Z,41.4
2022-12-07T00:37:53.000Z,41.4
2022-12-07T00:39:08.000Z,41.2
2022-12-07T00:40:24.000Z,41.3
2022-12-07T00:41:40.956Z,40.6
2022-12-07T00:42:56.000Z,40.6
2022-12-07T00:44:13.387Z,40.9
2022-12-07T00:45:29.000Z,40.6
2022-12-07T00:46:45.000Z,40.7
2022-12-07T00:48:01.000Z,40.6
2022-12-07T00:49:17.834Z,40.4
2022-12-07T00:50:33.000Z,40.4
2022-12-07T00:51:49.000Z,39.3
2022-12-07T00:53:06.000Z,38.6
2022-12-07T00:54:22.000Z,37.9
2022-12-07T00:55:37.000Z,38.1
2022-12-07T00:56:53.000Z,37.6
2022-12-07T00:58:09.000Z,37.7
2022-12-07T00:59:25.000Z,37.2
2022-12-07T01:00:41.000Z,37.3
2022-12-07T01:01:58.308Z,37.3
2022-12-07T01:03:14.000Z,37.5
2022-12-07T01:04:30.598Z,37.4
2022-12-07T01:05:46.000Z,37.4
2022-12-07T01:07:02.000Z,37.5
2022-12-07T01:08:18.000Z,37.6
2022-12-07T01:09:34.000Z,37.7
2022-12-07T01:10:51.328Z,37.9
2022-12-07T01:12:06.000Z,37.7
2022-12-07T01:13:22.000Z,37.9
2022-12-07T01:14:38.000Z,37.8
2022-12-07T01:15:54.000Z,37.9
2022-12-07T01:17:10.000Z,38.1
2022-12-07T01:18:26.000Z,38.3
2022-12-07T01:19:43.000Z,38.4
2022-12-07T01:20:59.000Z,38.5
2022-12-07T01:22:15.678Z,38.6
2022-12-07T01:23:31.000Z,38.7
2022-12-07T01:24:47.000Z,38.8
2022-12-07T01:26:04.097Z,38.9
2022-12-07T01:27:20.000Z,38.8
2022-12-07T01:28:35.000Z,39
2022-12-07T01:29:51.000Z,39.3
2022-12-07T01:31:07.000Z,39.3
2022-12-07T01:32:23.000Z,39.5
2022-12-07T01:33:39.000Z,39.6
2022-12-07T01:34:56.148Z,39.7
2022-12-07T01:36:12.000Z,39.5
2022-12-07T01:37:28.000Z,39.7
2022-12-07T01:38:44.000Z,39.7
2022-12-07T01:40:00.000Z,39.8
2022-12-07T01:41:16.000Z,40
2022-12-07T01:42:32.000Z,40.4
2022-12-07T01:43:48.000Z,40.5
2022-12-07T01:45:05.000Z,40.8
2022-12-07T01:46:20.000Z,41
2022-12-07T01:47:36.000Z,40.9
2022-12-07T01:48:52.000Z,40.7
2022-12-07T01:50:08.000Z,40.6
2022-12-07T01:51:24.000Z,40.5
2022-12-07T01:52:40.000Z,40.5
2022-12-07T01:53:57.000Z,40.6
2022-12-07T01:55:13.474Z,40.9
2022-12-07T01:56:29.000Z,41
2022-12-07T01:57:45.000Z,41.3
2022-12-07T01:59:01.000Z,40.8
2022-12-07T02:00:17.000Z,40.5
2022-12-07T02:01:33.000Z,40.5
2022-12-07T02:02:49.000Z,40.6
2022-12-07T02:04:05.000Z,40.8
2022-12-07T02:05:21.000Z,40.8
2022-12-07T02:06:37.000Z,40.7
2022-12-07T02:07:53.000Z,40.9
2022-12-07T02:09:09.000Z,40.8
2022-12-07T02:10:26.000Z,41
2022-12-07T02:11:42.385Z,41.6
2022-12-07T02:12:58.000Z,41.5
2022-12-07T02:14:14.000Z,42.2
2022-12-07T02:15:30.000Z,41.9
2022-12-07T02:16:46.970Z,42.3
2022-12-07T02:18:03.113Z,42.3
2022-12-07T02:19:18.000Z,42.3
2022-12-07T02:20:34.000Z,41.8
2022-12-07T02:21:50.000Z,41.6
2022-12-07T02:23:06.000Z,41.7
2022-12-07T02:24:22.000Z,41.7
2022-12-07T02:25:38.000Z,41.9
2022-12-07T02:26:54.000Z,42
2022-12-07T02:28:11.000Z,42.2
2022-12-07T02:29:27.000Z,42.1
2022-12-07T02:30:43.000Z,42.2
2022-12-07T02:31:59.000Z,42.3
2022-12-07T02:33:15.000Z,42.7
2022-12-07T02:34:31.000Z,43.2
2022-12-07T02:35:46.000Z,44.1
2022-12-07T02:37:03.000Z,44.5
2022-12-07T02:38:19.000Z,44.6
2022-12-07T02:39:35.000Z,44.7
2022-12-07T02:40:51.773Z,44.5
2022-12-07T02:42:07.000Z,45.5
2022-12-07T02:43:23.000Z,45.5
2022-12-07T02:44:39.000Z,45.4
2022-12-07T02:45:56.357Z,45.8
2022-12-07T02:47:12.000Z,45.7
2022-12-07T02:48:28.000Z,45.3
2022-12-07T02:49:44.000Z,45.1
2022-12-07T02:51:00.000Z,44.8
2022-12-07T02:52:15.000Z,44.5
2022-12-07T02:53:32.000Z,44.5
2022-12-07T02:54:48.000Z,44.2
2022-12-07T02:56:04.000Z,44.2
2022-12-07T02:57:20.000Z,43.8
2022-12-07T02:58:36.000Z,44.8
2022-12-07T02:59:52.000Z,45.3
2022-12-07T03:01:08.000Z,45.7
2022-12-07T03:02:25.000Z,45.7
2022-12-07T03:03:41.000Z,45.6
2022-12-07T03:04:57.000Z,45.6
2022-12-07T03:06:13.706Z,45.9
2022-12-07T03:07:29.000Z,46
2022-12-07T03:08:44.000Z,45.6
2022-12-07T03:10:00.000Z,45.9
2022-12-07T03:11:17.516Z,45.5
2022-12-07T03:12:33.000Z,45.3
2022-12-07T03:13:49.000Z,45.1
2022-12-07T03:15:05.000Z,44.8
2022-12-07T03:16:21.000Z,44.7
2022-12-07T03:17:37.000Z,44.4
2022-12-07T03:18:54.189Z,44.5
2022-12-07T03:20:10.000Z,45.2
2022-12-07T03:21:26.000Z,45.4
2022-12-07T03:22:42.000Z,45.5
2022-12-07T03:23:58.000Z,45.6
2022-12-07T03:25:13.000Z,45.7
2022-12-07T03:26:29.000Z,45.4
2022-12-07T03:27:45.000Z,45.2
2022-12-07T03:29:02.000Z,45.3
2022-12-07T03:30:18.517Z,45.1
2022-12-07T03:31:33.000Z,45.1
2022-12-07T03:32:49.000Z,45.1
2022-12-07T03:34:05.000Z,45.2
2022-12-07T03:35:21.000Z,45.1
2022-12-07T03:36:38.000Z,45.4
2022-12-07T03:37:54.000Z,45.9
2022-12-07T03:39:10.000Z,45.8
2022-12-07T03:40:26.000Z,45.6
2022-12-07T03:41:42.852Z,46
2022-12-07T03:42:58.000Z,46.1
2022-12-07T03:44:14.000Z,46.7
2022-12-07T03:45:31.000Z,46.4
2022-12-07T03:46:47.438Z,46.1
2022-12-07T03:48:02.000Z,45.8
2022-12-07T03:49:18.000Z,45.5
2022-12-07T03:50:34.000Z,46.7
2022-12-07T03:51:50.000Z,45.3
2022-12-07T03:53:06.000Z,46.1
2022-12-07T03:54:23.327Z,45.6
2022-12-07T03:55:39.000Z,45.7
2022-12-07T03:56:55.000Z,45.9
2022-12-07T03:58:11.000Z,46.3
2022-12-07T03:59:27.000Z,46.1
2022-12-07T04:00:44.055Z,46.4
2022-12-07T04:01:59.000Z,46.9
2022-12-07T04:03:16.000Z,46.5
2022-12-07T04:04:31.000Z,45.4
2022-12-07T04:05:47.663Z,45.8
2022-12-07T04:07:03.000Z,46.3
2022-12-07T04:08:19.000Z,46.1
2022-12-07T04:09:35.000Z,46.3
2022-12-07T04:10:52.000Z,46.5
2022-12-07T04:12:08.000Z,46.5
2022-12-07T04:13:24.000Z,45.8
2022-12-07T04:14:40.000Z,45.8
2022-12-07T04:15:56.000Z,45.6
2022-12-07T04:17:12.000Z,46.2
2022-12-07T04:18:28.000Z,45.6
2022-12-07T04:19:45.000Z,45.6
2022-12-07T04:21:00.000Z,45.6
2022-12-07T04:22:16.000Z,45.5
2022-12-07T04:23:32.000Z,45
2022-12-07T04:24:48.000Z,45.2
2022-12-07T04:26:04.000Z,45.2
2022-12-07T04:27:20.000Z,45.3
2022-12-07T04:28:37.000Z,45.1
2022-12-07T04:29:53.000Z,44.8
2022-12-07T04:31:09.000Z,44.8
2022-12-07T04:32:25.000Z,45
2022-12-07T04:33:41.000Z,44.8
2022-12-07T04:34:57.000Z,44.8
2022-12-07T04:36:14.184Z,44.8
2022-12-07T04:37:29.000Z,44.7
2022-12-07T04:38:45.000Z,44.5
2022-12-07T04:40:01.783Z,44.6
2022-12-07T04:41:17.000Z,44.7
2022-12-07T04:42:33.000Z,44.9
2022-12-07T04:43:49.000Z,45
2022-12-07T04:45:06.220Z,45.5
2022-12-07T04:46:22.000Z,45.2
2022-12-07T04:47:38.000Z,45.5
2022-12-07T04:48:54.000Z,45.3
2022-12-07T04:50:10.000Z,45.3
2022-12-07T04:51:26.000Z,45.4
2022-12-07T04:52:42.000Z,45.3
2022-12-07T04:53:58.000Z,45.6
2022-12-07T04:55:14.000Z,45.3
2022-12-07T04:56:30.553Z,45.3
2022-12-07T04:57:46.000Z,45.6
2022-12-07T04:59:02.000Z,45.6
2022-12-07T05:00:18.000Z,45.6
2022-12-07T05:01:34.000Z,45.4
2022-12-07T05:02:51.000Z,45.2
2022-12-07T05:04:07.000Z,44.9
2022-12-07T05:05:23.000Z,44.9
2022-12-07T05:06:39.000Z,44.9
2022-12-07T05:07:55.000Z,44.8
2022-12-07T05:09:11.000Z,44.7
2022-12-07T05:10:26.000Z,44.9
2022-12-07T05:11:43.000Z,44.5
2022-12-07T05:12:59.000Z,44.4
2022-12-07T05:14:15.000Z,44.3
2022-12-07T05:15:31.000Z,44.4
2022-12-07T05:16:47.000Z,44.2
2022-12-07T05:18:04.054Z,44.2
2022-12-07T05:19:19.000Z,44.3
2022-12-07T05:20:36.000Z,44.4
2022-12-07T05:21:52.000Z,44.3
2022-12-07T05:23:08.000Z,44.2
2022-12-07T05:24:24.000Z,44.3
2022-12-07T05:25:40.000Z,44.3
2022-12-07T05:26:55.000Z,44.6
2022-12-07T05:28:12.000Z,44.2
2022-12-07T05:29:28.000Z,43.7
2022-12-07T05:30:44.000Z,43.3
2022-12-07T05:32:00.000Z,43.4
2022-12-07T05:33:16.000Z,43.4
2022-12-07T05:35:48.000Z,43.8
2022-12-07T05:37:05.000Z,43.6
2022-12-07T05:38:21.000Z,43.6
2022-12-07T05:39:37.000Z,43.3
2022-12-07T05:40:53.000Z,43.5
2022-12-07T05:42:09.840Z,43.6
2022-12-07T05:43:24.000Z,43.6
2022-12-07T05:44:40.000Z,43.7
2022-12-07T05:45:57.000Z,43.6
2022-12-07T05:47:13.447Z,44
2022-12-07T05:48:29.000Z,43.7
2022-12-07T05:49:45.734Z,43.6
2022-12-07T05:51:01.000Z,43.8
2022-12-07T05:52:17.000Z,44
2022-12-07T05:53:33.000Z,44
2022-12-07T05:54:50.000Z,44.1
2022-12-07T05:56:06.000Z,44.4
2022-12-07T05:57:22.000Z,44.6
2022-12-07T05:58:38.000Z,44.5
2022-12-07T05:59:53.000Z,44.8
2022-12-07T06:01:09.000Z,44.8
2022-12-07T06:02:25.000Z,45.1
2022-12-07T06:03:42.000Z,44.2
2022-12-07T06:04:58.000Z,44.2
2022-12-07T06:06:14.000Z,44
2022-12-07T06:07:30.000Z,44
2022-12-07T06:08:46.000Z,44.1
2022-12-07T06:10:02.000Z,43.8
2022-12-07T06:11:19.000Z,43.6
2022-12-07T06:12:35.000Z,44.2
2022-12-07T06:13:51.000Z,43.8
2022-12-07T06:15:07.000Z,43.2
2022-12-07T06:16:22.833Z,43.4
2022-12-07T06:17:38.974Z,43.1
2022-12-07T06:18:54.000Z,43.6
2022-12-07T06:20:11.000Z,43.4
2022-12-07T06:21:27.000Z,43.6
2022-12-07T06:22:43.000Z,43.6
2022-12-07T06:23:59.000Z,43
2022-12-07T06:25:15.860Z,43.2
2022-12-07T06:26:32.005Z,43.1
2022-12-07T06:27:47.000Z,43.3
2022-12-07T06:29:04.294Z,43.7
2022-12-07T06:30:20.000Z,43.3
2022-12-07T06:31:36.000Z,43.1
2022-12-07T06:32:51.000Z,43.1
2022-12-07T06:34:07.900Z,43.2
2022-12-07T06:35:23.000Z,43.3
2022-12-07T06:36:39.000Z,43.3
2022-12-07T06:37:56.337Z,43.6
2022-12-07T06:39:12.000Z,43.5
2022-12-07T06:40:28.624Z,43.8
2022-12-07T06:41:44.000Z,43.8
2022-12-07T06:43:00.000Z,43.9
2022-12-07T06:44:16.000Z,44.1
2022-12-07T06:45:33.209Z,43.9
2022-12-07T06:46:49.355Z,44.6
2022-12-07T06:48:05.000Z,43.9
2022-12-07T06:49:20.000Z,43.9
2022-12-07T06:50:36.000Z,43.2
2022-12-07T06:51:52.000Z,43.1
2022-12-07T06:53:08.000Z,42.9
2022-12-07T06:54:25.000Z,42.9
2022-12-07T06:55:41.000Z,42.5
2022-12-07T06:56:57.000Z,42.8
2022-12-07T06:58:13.000Z,42.5
2022-12-07T06:59:29.000Z,42.7
2022-12-07T07:00:45.000Z,42.3
2022-12-07T07:02:01.000Z,42.1
2022-12-07T07:03:18.000Z,42.4
2022-12-07T07:04:34.000Z,42.4
2022-12-07T07:05:49.000Z,42.4
2022-12-07T07:07:05.000Z,42.5
2022-12-07T07:08:21.000Z,42.7
2022-12-07T07:09:37.000Z,43.4
2022-12-07T07:10:53.000Z,43.3
2022-12-07T07:12:10.000Z,43.3
2022-12-07T07:13:26.000Z,43.6
2022-12-07T07:14:42.618Z,43.7
2022-12-07T07:15:58.000Z,44.2
2022-12-07T07:17:14.000Z,44.8
2022-12-07T07:18:30.000Z,44.8
2022-12-07T07:19:47.203Z,44.6
2022-12-07T07:21:03.000Z,45.2
2022-12-07T07:22:18.000Z,46
2022-12-07T07:23:34.000Z,45.6
2022-12-07T07:24:50.000Z,46.3
2022-12-07T07:26:06.000Z,46.4
2022-12-07T07:27:22.000Z,47.1
2022-12-07T07:28:39.000Z,47
2022-12-07T07:29:55.000Z,47.5
2022-12-07T07:31:11.000Z,47
2022-12-07T07:32:27.000Z,47.4
2022-12-07T07:33:43.000Z,48.4
2022-12-07T07:34:59.000Z,50.3
2022-12-07T07:36:15.000Z,50.7
2022-12-07T07:37:32.000Z,52.7
2022-12-07T07:38:47.000Z,53.9
2022-12-07T07:40:03.000Z,55.7
2022-12-07T07:41:19.741Z,58
2022-12-07T07:42:35.000Z,59.6
2022-12-07T07:43:51.000Z,61.6
2022-12-07T07:45:08.183Z,61.4
2022-12-07T07:46:23.000Z,63.3
2022-12-07T07:47:39.000Z,66.7
2022-12-07T07:48:55.641Z,70
2022-12-07T07:50:11.000Z,71.9
2022-12-07T07:51:27.000Z,73
2022-12-07T07:52:44.082Z,74
2022-12-07T07:54:00.000Z,74.8
2022-12-07T07:55:16.000Z,77.2
2022-12-07T07:56:32.000Z,79.3
2022-12-07T07:57:48.000Z,80
2022-12-07T07:59:04.000Z,80.2
2022-12-07T08:00:20.000Z,80.5
2022-12-07T08:01:36.000Z,81.4
2022-12-07T08:02:52.000Z,80.5
2022-12-07T08:04:08.000Z,80.5
2022-12-07T08:05:24.000Z,80.5
2022-12-07T08:06:40.000Z,80.4
2022-12-07T08:07:56.000Z,80.3
2022-12-07T08:09:12.000Z,80.5
2022-12-07T08:10:28.000Z,81
2022-12-07T08:11:45.000Z,80.7
2022-12-07T08:13:01.000Z,80.6
2022-12-07T08:14:17.000Z,79.4
2022-12-07T08:15:33.000Z,78.5
2022-12-07T08:16:49.000Z,79.4
2022-12-07T08:18:05.000Z,79.8
2022-12-07T08:19:20.000Z,81
2022-12-07T08:20:37.000Z,82.6
2022-12-07T08:21:53.000Z,84.2
2022-12-07T08:23:09.000Z,85.7
2022-12-07T08:24:25.000Z,86.5
2022-12-07T08:25:41.000Z,86.6
2022-12-07T08:26:57.000Z,86.7
2022-12-07T08:28:14.000Z,87.6
2022-12-07T08:29:30.000Z,88.5
2022-12-07T08:30:46.000Z,88.4
2022-12-07T08:32:02.677Z,90.9
2022-12-07T08:33:18.000Z,92.6
2022-12-07T08:34:34.000Z,92.8
2022-12-07T08:35:49.000Z,94.9
2022-12-07T08:37:06.280Z,96.8
2022-12-07T08:38:22.000Z,97.7
2022-12-07T08:39:38.000Z,97.8
2022-12-07T08:40:54.000Z,97.5
2022-12-07T08:42:10.000Z,97.2
2022-12-07T08:43:26.000Z,97.8
2022-12-07T08:44:42.000Z,97.8
2022-12-07T08:45:59.000Z,97.6
2022-12-07T08:47:15.000Z,97.6
2022-12-07T08:48:31.000Z,97.1
2022-12-07T08:49:47.000Z,98.3
2022-12-07T08:51:03.000Z,97.5
2022-12-07T08:52:18.000Z,96.9
2022-12-07T08:53:34.000Z,95.7
2022-12-07T08:54:51.000Z,95
2022-12-07T08:56:07.000Z,94.5
2022-12-07T08:57:23.000Z,94.5
2022-12-07T08:58:39.000Z,94.1
2022-12-07T08:59:55.000Z,93.8
2022-12-07T09:01:11.000Z,93
2022-12-07T09:02:28.000Z,91.2
2022-12-07T09:03:44.000Z,92.1
2022-12-07T09:05:00.000Z,91.7
2022-12-07T09:06:16.000Z,92.7
2022-12-07T09:07:32.000Z,92
2022-12-07T09:08:47.000Z,92
2022-12-07T09:10:03.000Z,93.5
2022-12-07T09:11:20.000Z,94
2022-12-07T09:12:36.000Z,93.6
2022-12-07T09:13:52.580Z,94.1
2022-12-07T09:15:08.000Z,94.8
2022-12-07T09:16:24.000Z,94.5
2022-12-07T09:17:40.000Z,96.4
2022-12-07T09:18:56.000Z,96.7
2022-12-07T09:20:13.000Z,96.8
2022-12-07T09:21:29.000Z,96.1
2022-12-07T09:22:45.000Z,94.4
2022-12-07T09:24:01.000Z,94.8
2022-12-07T09:25:16.000Z,96.2
2022-12-07T09:26:32.000Z,96
2022-12-07T09:27:48.000Z,96.4
2022-12-07T09:29:05.000Z,96.9
2022-12-07T09:30:21.000Z,97
2022-12-07T09:31:37.000Z,97.4
2022-12-07T09:32:53.000Z,98.3
2022-12-07T09:34:09.000Z,98.3
2022-12-07T09:35:25.000Z,98
2022-12-07T09:36:42.000Z,97.7
2022-12-07T09:37:58.392Z,96.3
2022-12-07T09:39:14.000Z,95.1
2022-12-07T09:40:30.000Z,94.7
2022-12-07T09:41:45.000Z,94.3
2022-12-07T09:43:01.000Z,94.8
2022-12-07T09:44:17.000Z,96.2
2022-12-07T09:45:34.000Z,98.9
2022-12-07T09:46:50.000Z,100
2022-12-07T09:48:06.000Z,100
2022-12-07T09:49:22.000Z,100
2022-12-07T09:50:38.000Z,100
2022-12-07T09:51:54.000Z,100
2022-12-07T09:53:10.000Z,100
2022-12-07T09:54:27.000Z,100
2022-12-07T09:55:43.000Z,100
2022-12-07T09:56:59.000Z,99.7
2022-12-07T09:58:14.000Z,100
2022-12-07T09:59:30.929Z,100
2022-12-07T10:00:46.000Z,100
2022-12-07T10:02:02.000Z,99
2022-12-07T10:03:19.000Z,98.5
2022-12-07T10:04:35.000Z,94
2022-12-07T10:05:51.000Z,94.3
2022-12-07T10:07:07.000Z,95.8
2022-12-07T10:08:23.953Z,97.7
2022-12-07T10:09:39.000Z,100
2022-12-07T10:10:56.000Z,100
2022-12-07T10:12:12.000Z,100
2022-12-07T10:13:28.000Z,100
2022-12-07T10:14:43.000Z,100
2022-12-07T10:15:59.000Z,100
2022-12-07T10:17:15.000Z,100
2022-12-07T10:18:31.000Z,100
2022-12-07T10:19:48.000Z,100
2022-12-07T10:21:04.000Z,100
2022-12-07T10:22:20.000Z,100
2022-12-07T10:23:36.000Z,100
2022-12-07T10:24:52.897Z,100
2022-12-07T10:26:08.000Z,100
2022-12-07T10:27:24.000Z,100
2022-12-07T10:28:41.000Z,100
2022-12-07T10:29:57.000Z,100
2022-12-07T10:31:12.000Z,100
2022-12-07T10:32:28.000Z,100
2022-12-07T10:33:44.929Z,100
2022-12-07T10:35:00.000Z,100
2022-12-07T10:36:16.000Z,100
2022-12-07T10:37:33.000Z,100
2022-12-07T10:38:49.000Z,100
2022-12-07T10:40:05.000Z,100
2022-12-07T10:41:21.000Z,100
2022-12-07T10:42:37.000Z,100
2022-12-07T10:43:53.000Z,100
2022-12-07T10:45:10.255Z,100
2022-12-07T10:46:26.000Z,100
2022-12-07T10:47:41.000Z,100
2022-12-07T10:48:57.000Z,100
2022-12-07T10:50:13.000Z,100
2022-12-07T10:51:29.000Z,100
2022-12-07T10:52:45.000Z,100
2022-12-07T10:54:02.000Z,100
2022-12-07T10:55:18.000Z,100
2022-12-07T10:56:34.000Z,100
2022-12-07T10:57:50.000Z,100
2022-12-07T10:59:06.000Z,100
2022-12-07T11:00:22.000Z,100
2022-12-07T11:01:38.000Z,100
2022-12-07T11:02:55.000Z,100
2022-12-07T11:04:10.491Z,100
2022-12-07T11:05:26.000Z,100
2022-12-07T11:06:42.890Z,100
2022-12-07T11:07:58.936Z,100
2022-12-07T11:09:14.000Z,100
2022-12-07T11:10:31.000Z,100
2022-12-07T11:11:47.000Z,100
2022-12-07T11:13:03.000Z,100
2022-12-07T11:14:19.000Z,100
2022-12-07T11:15:35.000Z,100
2022-12-07T11:16:51.000Z,100
2022-12-07T11:18:07.000Z,100
2022-12-07T11:19:24.000Z,100
2022-12-07T11:20:39.000Z,100
2022-12-07T11:21:55.000Z,100
2022-12-07T11:23:11.000Z,100
2022-12-07T11:24:27.862Z,100
2022-12-07T11:25:43.000Z,100
2022-12-07T11:26:59.000Z,100
2022-12-07T11:28:16.306Z,100
2022-12-07T11:29:32.000Z,100
2022-12-07T11:30:48.000Z,100
2022-12-07T11:32:04.000Z,100
2022-12-07T11:33:20.886Z,100
2022-12-07T11:34:36.000Z,100
2022-12-07T11:35:52.000Z,100
2022-12-07T11:37:08.000Z,100
2022-12-07T11:38:24.492Z,100
2022-12-07T11:39:40.000Z,100
2022-12-07T11:40:56.000Z,100
2022-12-07T11:42:12.000Z,100
2022-12-07T11:43:28.000Z,100
2022-12-07T11:44:45.000Z,100
2022-12-07T11:46:01.000Z,100
2022-12-07T11:47:17.000Z,100
2022-12-07T11:48:33.000Z,100
2022-12-07T11:49:49.000Z,100
2022-12-07T11:51:05.000Z,100
2022-12-07T11:52:21.000Z,100
2022-12-07T11:53:37.000Z,100
2022-12-07T11:54:53.422Z,100
2022-12-07T11:56:09.000Z,100
2022-12-07T11:57:25.000Z,100
2022-12-07T11:58:41.000Z,100
2022-12-07T11:59:57.000Z,100
2022-12-07T12:01:12.000Z,100
2022-12-07T12:02:29.324Z,100
2022-12-07T12:03:45.000Z,100
2022-12-07T12:05:01.000Z,100
2022-12-07T12:06:17.000Z,100
2022-12-07T12:07:33.000Z,100
2022-12-07T12:08:49.000Z,100
2022-12-07T12:10:06.207Z,100
2022-12-07T12:11:22.000Z,100
2022-12-07T12:12:38.000Z,100
2022-12-07T12:13:54.000Z,100
2022-12-07T12:15:10.000Z,100
2022-12-07T12:16:26.000Z,100
2022-12-07T12:17:41.000Z,100
2022-12-07T12:18:58.000Z,100
2022-12-07T12:20:14.521Z,100
2022-12-07T12:21:30.000Z,100
2022-12-07T12:22:46.000Z,100
2022-12-07T12:24:02.000Z,100
2022-12-07T12:25:18.000Z,100
2022-12-07T12:26:35.140Z,100
2022-12-07T12:27:51.000Z,100
2022-12-07T12:29:07.000Z,100
2022-12-07T12:30:23.000Z,100
2022-12-07T12:31:39.000Z,100
2022-12-07T12:32:55.000Z,100
2022-12-07T12:34:10.000Z,100
2022-12-07T12:35:26.000Z,100
2022-12-07T12:36:43.000Z,100
2022-12-07T12:37:59.000Z,100
2022-12-07T12:39:15.000Z,100
2022-12-07T12:40:31.000Z,100
2022-12-07T12:41:47.000Z,100
2022-12-07T12:43:03.000Z,100
2022-12-07T12:44:20.208Z,100
2022-12-07T12:45:36.000Z,100
2022-12-07T12:46:52.000Z,100
2022-12-07T12:48:08.000Z,100
2022-12-07T12:49:24.000Z,100
2022-12-07T12:50:39.000Z,100
2022-12-07T12:51:55.000Z,100
2022-12-07T12:53:12.000Z,100
2022-12-07T12:54:28.000Z,100
2022-12-07T12:55:44.000Z,100
2022-12-07T12:57:00.000Z,100
2022-12-07T12:58:16.000Z,100
2022-12-07T12:59:32.000Z,100
2022-12-07T13:00:48.000Z,100
2022-12-07T13:02:05.000Z,100
2022-12-07T13:03:21.000Z,100
2022-12-07T13:04:37.000Z,100
2022-12-07T13:05:53.000Z,100
2022-12-07T13:07:08.000Z,100
2022-12-07T13:08:24.000Z,100
2022-12-07T13:09:40.000Z,100
2022-12-07T13:10:57.000Z,100
2022-12-07T13:12:13.000Z,100
2022-12-07T13:13:29.000Z,100
2022-12-07T13:14:45.000Z,100
2022-12-07T13:16:01.000Z,100
2022-12-07T13:17:18.067Z,100
2022-12-07T13:18:33.000Z,100
2022-12-07T13:19:50.000Z,100
2022-12-07T13:21:06.000Z,100
2022-12-07T13:22:22.000Z,100
2022-12-07T13:23:37.000Z,100
2022-12-07T13:24:53.000Z,100
2022-12-07T13:26:09.000Z,100
2022-12-07T13:27:26.000Z,100
2022-12-07T13:28:42.000Z,100
2022-12-07T13:29:58.000Z,100
2022-12-07T13:31:14.000Z,100
2022-12-07T13:32:30.000Z,100
2022-12-07T13:33:46.000Z,100
2022-12-07T13:35:03.144Z,100
2022-12-07T13:36:19.000Z,100
2022-12-07T13:37:35.000Z,100
2022-12-07T13:38:51.580Z,100
2022-12-07T13:40:06.000Z,100
2022-12-07T13:41:22.000Z,100
2022-12-07T13:42:39.042Z,100
2022-12-07T13:43:54.000Z,100
2022-12-07T13:45:11.000Z,100
2022-12-07T13:46:27.000Z,100
2022-12-07T13:47:43.000Z,100
2022-12-07T13:48:59.000Z,100
2022-12-07T13:50:15.924Z,100
2022-12-07T13:51:31.000Z,100
2022-12-07T13:52:47.000Z,100
2022-12-07T13:54:04.000Z,100
2022-12-07T13:55:20.000Z,100
2022-12-07T13:56:35.000Z,100
2022-12-07T13:57:51.000Z,100
2022-12-07T13:59:07.000Z,100
2022-12-07T14:00:23.000Z,100
2022-12-07T14:01:40.000Z,100
2022-12-07T14:02:56.000Z,100
2022-12-07T14:04:12.000Z,100
2022-12-07T14:05:28.000Z,100
2022-12-07T14:06:44.000Z,100
2022-12-07T14:08:00.000Z,100
2022-12-07T14:09:16.000Z,100
2022-12-07T14:10:33.000Z,100
2022-12-07T14:11:49.000Z,100
2022-12-07T14:13:04.000Z,100
2022-12-07T14:14:20.000Z,100
2022-12-07T14:15:36.000Z,100
2022-12-07T14:16:52.000Z,100
2022-12-07T14:18:08.000Z,100
2022-12-07T14:19:25.342Z,100
2022-12-07T14:20:41.000Z,100
2022-12-07T14:21:57.000Z,100
2022-12-07T14:23:13.000Z,100
2022-12-07T14:24:29.000Z,100
2022-12-07T14:25:45.000Z,100
2022-12-07T14:27:02.225Z,100
2022-12-07T14:28:18.000Z,100
2022-12-07T14:29:33.000Z,100
2022-12-07T14:30:49.000Z,100
2022-12-07T14:32:05.831Z,100
2022-12-07T14:33:21.980Z,100
2022-12-07T14:34:38.127Z,100
2022-12-07T14:35:54.269Z,100
2022-12-07T14:37:10.000Z,100
2022-12-07T14:38:26.000Z,100
2022-12-07T14:39:42.000Z,100
2022-12-07T14:40:58.000Z,100
2022-12-07T14:42:14.000Z,100
2022-12-07T14:43:30.000Z,100
2022-12-07T14:44:47.000Z,100
2022-12-07T14:46:02.000Z,100
2022-12-07T14:47:18.613Z,100
2022-12-07T14:48:34.000Z,100
2022-12-07T14:49:50.000Z,100
2022-12-07T14:51:07.063Z,100
2022-12-07T14:52:22.000Z,100
2022-12-07T14:53:39.000Z,100
2022-12-07T14:54:55.000Z,100
2022-12-07T14:56:11.000Z,100
2022-12-07T14:57:27.000Z,100
2022-12-07T14:58:43.937Z,100
2022-12-07T14:59:59.000Z,100
2022-12-07T15:01:16.238Z,100
2022-12-07T15:02:31.000Z,100
2022-12-07T15:03:47.000Z,100
2022-12-07T15:05:03.000Z,100
2022-12-07T15:06:19.000Z,100
2022-12-07T15:07:35.000Z,100
2022-12-07T15:08:51.000Z,100
2022-12-07T15:10:08.000Z,100
2022-12-07T15:11:24.426Z,100
2022-12-07T15:12:40.581Z,100
2022-12-07T15:13:56.000Z,100
2022-12-07T15:15:12.000Z,100
2022-12-07T15:16:28.000Z,100
2022-12-07T15:17:44.000Z,100
2022-12-07T15:19:00.334Z,100
2022-12-07T15:20:16.000Z,100
2022-12-07T15:21:32.000Z,100
2022-12-07T15:22:48.000Z,100
2022-12-07T15:24:04.000Z,100
2022-12-07T15:25:20.000Z,100
2022-12-07T15:26:37.216Z,100
2022-12-07T15:27:53.000Z,100
2022-12-07T15:29:09.000Z,100
2022-12-07T15:30:25.652Z,100
2022-12-07T15:31:41.795Z,100
2022-12-07T15:32:57.000Z,100
2022-12-07T15:34:13.000Z,100
2022-12-07T15:35:29.000Z,100
2022-12-07T15:36:45.412Z,100
2022-12-07T15:38:01.000Z,100
2022-12-07T15:39:17.000Z,100
2022-12-07T15:40:33.000Z,100
2022-12-07T15:41:49.000Z,100
2022-12-07T15:43:06.138Z,100
2022-12-07T15:44:22.282Z,100
2022-12-07T15:45:38.000Z,100
2022-12-07T15:46:54.000Z,100
2022-12-07T15:48:10.000Z,100
2022-12-07T15:49:26.000Z,100
2022-12-07T15:50:42.000Z,100
2022-12-07T15:51:58.197Z,100
2022-12-07T15:53:14.000Z,100
2022-12-07T15:54:30.000Z,100
2022-12-07T15:55:46.000Z,100
2022-12-07T15:57:02.000Z,99.8
2022-12-07T15:58:18.000Z,99.9
2022-12-07T15:59:34.000Z,100
2022-12-07T16:00:51.209Z,100
2022-12-07T16:02:07.000Z,100
2022-12-07T16:03:23.000Z,100
2022-12-07T16:04:39.000Z,100
2022-12-07T16:05:55.000Z,100
2022-12-07T16:07:11.000Z,100
2022-12-07T16:08:26.000Z,100
2022-12-07T16:09:43.000Z,100
2022-12-07T16:10:59.000Z,100
2022-12-07T16:12:15.000Z,100
2022-12-07T16:13:31.000Z,100
2022-12-07T16:14:47.929Z,100
2022-12-07T16:16:02.000Z,100
2022-12-07T16:17:18.000Z,99.5
2022-12-07T16:18:35.000Z,99.3
2022-12-07T16:19:51.458Z,100
2022-12-07T16:21:07.000Z,100
2022-12-07T16:22:23.757Z,100
2022-12-07T16:23:39.906Z,100
2022-12-07T16:24:55.000Z,100
2022-12-07T16:26:11.000Z,100
2022-12-07T16:27:28.000Z,100
2022-12-07T16:28:44.000Z,100
2022-12-07T16:30:00.000Z,100
2022-12-07T16:31:16.000Z,100
2022-12-07T16:32:31.000Z,100
2022-12-07T16:33:48.094Z,100
2022-12-07T16:35:04.000Z,99.7
2022-12-07T16:36:20.000Z,96.2
2022-12-07T16:37:36.000Z,95.7
2022-12-07T16:38:52.000Z,96.5
2022-12-07T16:40:08.000Z,96.8
2022-12-07T16:41:24.000Z,96.8
2022-12-07T16:42:41.127Z,97.5
2022-12-07T16:43:57.000Z,97
2022-12-07T16:45:13.000Z,97.5
2022-12-07T16:46:29.545Z,94.3
2022-12-07T16:47:45.000Z,93.4
2022-12-07T16:49:00.000Z,94.2
2022-12-07T16:50:16.000Z,93.9
2022-12-07T16:51:33.154Z,94.1
2022-12-07T16:52:49.000Z,94.2
2022-12-07T16:54:05.440Z,94.2
2022-12-07T16:55:21.000Z,94.5
2022-12-07T16:56:37.000Z,92.6
2022-12-07T16:57:53.880Z,92.7
2022-12-07T16:59:09.000Z,92.7
2022-12-07T17:00:25.000Z,93
2022-12-07T17:01:42.000Z,93.2
2022-12-07T17:02:58.000Z,94.1
2022-12-07T17:04:14.000Z,93.7
2022-12-07T17:05:29.000Z,94.1
2022-12-07T17:06:45.000Z,93.9
2022-12-07T17:08:01.000Z,93.8
2022-12-07T17:09:17.000Z,94.1
2022-12-07T17:10:34.000Z,93.3